createdAt,value
2018-09-24T00:02:19.205Z,24.23
2018-09-24T00:04:47.560Z,25.20
2018-09-24T00:07:15.611Z,28.77
2018-09-24T00:09:43.690Z,25.93
2018-09-24T00:12:11.856Z,24.43
2018-09-24T00:14:39.831Z,28.57
2018-09-24T00:17:07.785Z,27.93
2018-09-24T00:19:35.760Z,29.90
2018-09-24T00:22:03.780Z,28.57
2018-09-24T00:24:31.765Z,28.63
2018-09-24T00:27:00.002Z,25.87
2018-09-24T00:29:27.949Z,27.10
2018-09-24T00:31:55.865Z,29.40
2018-09-24T00:34:23.808Z,26.97
2018-09-24T00:36:51.680Z,27.30
2018-09-24T00:39:19.590Z,26.30
2018-09-24T00:41:47.507Z,26.23
2018-09-24T00:44:16.563Z,26.63
2018-09-24T00:46:44.626Z,30.13
2018-09-24T00:49:12.478Z,28.17
2018-09-24T00:51:40.488Z,27.87
2018-09-24T00:54:08.434Z,32.03
2018-09-24T00:56:36.497Z,28.27
2018-09-24T00:59:04.548Z,26.80
2018-09-24T01:01:32.596Z,26.43
2018-09-24T01:04:00.474Z,27.47
2018-09-24T01:06:28.476Z,31.12
2018-09-24T01:08:56.503Z,28.33
2018-09-24T01:11:24.401Z,28.30
2018-09-24T01:13:52.311Z,27.20
2018-09-24T01:16:20.283Z,32.33
2018-09-24T01:18:48.256Z,29.40
2018-09-24T01:21:16.214Z,30.00
2018-09-24T01:23:44.247Z,28.90
2018-09-24T01:26:12.294Z,30.83
2018-09-24T01:28:40.382Z,32.77
2018-09-24T01:31:08.599Z,30.40
2018-09-24T01:33:36.751Z,31.00
2018-09-24T01:36:04.766Z,32.87
2018-09-24T01:38:32.716Z,36.17
2018-09-24T01:41:00.604Z,30.47
2018-09-24T01:43:28.465Z,31.57
2018-09-24T01:45:56.969Z,31.07
2018-09-24T01:48:24.936Z,31.57
2018-09-24T01:50:52.885Z,32.53
2018-09-24T01:53:20.773Z,32.33
2018-09-24T01:55:50.262Z,30.50
2018-09-24T01:58:18.147Z,28.90
2018-09-24T02:00:46.071Z,29.63
2018-09-24T02:03:14.018Z,29.60
2018-09-24T02:05:42.000Z,31.90
2018-09-24T02:08:09.906Z,33.43
2018-09-24T02:10:37.938Z,33.10
2018-09-24T02:13:06.100Z,33.47
2018-09-24T02:15:34.142Z,29.63
2018-09-24T02:18:02.142Z,31.23
2018-09-24T02:20:30.203Z,30.40
2018-09-24T02:22:58.306Z,28.07
2018-09-24T02:25:26.350Z,34.40
2018-09-24T02:27:54.991Z,30.43
2018-09-24T02:30:23.313Z,28.40
2018-09-24T02:32:51.346Z,35.27
2018-09-24T02:35:19.400Z,28.07
2018-09-24T02:37:47.506Z,30.53
2018-09-24T02:40:24.224Z,28.27
2018-09-24T02:42:52.069Z,29.67
2018-09-24T02:45:20.760Z,30.07
2018-09-24T02:47:48.732Z,29.70
2018-09-24T02:50:16.759Z,30.00
2018-09-24T02:52:44.678Z,28.60
2018-09-24T02:55:17.346Z,29.80
2018-09-24T02:57:45.478Z,31.90
2018-09-24T03:00:17.885Z,30.90
2018-09-24T03:02:45.813Z,30.50
2018-09-24T03:05:13.736Z,28.73
2018-09-24T03:07:41.658Z,30.17
2018-09-24T03:10:09.588Z,29.53
2018-09-24T03:12:37.871Z,31.93
2018-09-24T03:15:05.954Z,30.73
2018-09-24T03:17:33.981Z,28.23
2018-09-24T03:20:02.228Z,29.13
2018-09-24T03:22:30.219Z,35.40
2018-09-24T03:24:59.259Z,29.87
2018-09-24T03:27:27.231Z,27.70
2018-09-24T03:29:55.122Z,29.20
2018-09-24T03:32:23.070Z,26.37
2018-09-24T03:34:50.949Z,26.40
2018-09-24T03:37:18.951Z,33.53
2018-09-24T03:39:46.856Z,27.30
2018-09-24T03:42:14.881Z,28.93
2018-09-24T03:44:42.896Z,33.70
2018-09-24T03:47:10.976Z,27.10
2018-09-24T03:49:38.986Z,27.33
2018-09-24T03:52:07.245Z,28.67
2018-09-24T03:54:35.616Z,29.33
2018-09-24T03:57:03.594Z,27.33
2018-09-24T03:59:31.561Z,32.87
2018-09-24T04:01:59.650Z,26.97
2018-09-24T04:04:33.086Z,28.20
2018-09-24T04:07:06.485Z,29.10
2018-09-24T04:09:39.999Z,27.30
2018-09-24T04:12:14.530Z,26.70
2018-09-24T04:14:48.247Z,28.23
2018-09-24T04:17:21.530Z,27.27
2018-09-24T04:19:54.915Z,27.50
2018-09-24T04:22:28.358Z,29.80
2018-09-24T04:25:01.938Z,29.70
2018-09-24T04:27:35.325Z,27.17
2018-09-24T04:30:09.153Z,28.07
2018-09-24T04:32:42.366Z,26.30
2018-09-24T04:35:15.811Z,28.17
2018-09-24T04:37:49.249Z,27.97
2018-09-24T04:40:22.634Z,27.37
2018-09-24T04:42:55.915Z,29.53
2018-09-24T04:45:29.154Z,31.83
2018-09-24T04:48:02.519Z,28.47
2018-09-24T04:50:37.522Z,28.67
2018-09-24T04:53:10.899Z,27.17
2018-09-24T04:55:44.274Z,29.47
2018-09-24T04:58:19.731Z,28.83
2018-09-24T05:00:53.205Z,29.47
2018-09-24T05:03:27.571Z,29.00
2018-09-24T05:06:01.058Z,29.87
2018-09-24T05:08:34.494Z,28.93
2018-09-24T05:11:07.888Z,29.13
2018-09-24T05:13:41.591Z,32.87
2018-09-24T05:16:14.989Z,30.90
2018-09-24T05:18:48.430Z,33.47
2018-09-24T05:21:21.862Z,31.53
2018-09-24T05:23:55.194Z,34.13
2018-09-24T05:26:28.442Z,37.70
2018-09-24T05:29:01.903Z,33.80
2018-09-24T05:31:35.155Z,33.47
2018-09-24T05:34:08.533Z,37.00
2018-09-24T05:36:42.432Z,31.57
2018-09-24T05:39:15.898Z,32.10
2018-09-24T05:41:49.150Z,31.67
2018-09-24T05:44:22.626Z,30.17
2018-09-24T05:46:55.889Z,28.60
2018-09-24T05:49:29.327Z,30.03
2018-09-24T05:52:02.698Z,31.90
2018-09-24T05:54:36.112Z,30.47
2018-09-24T05:57:09.590Z,27.67
2018-09-24T05:59:43.047Z,27.90
2018-09-24T06:02:16.442Z,31.30
2018-09-24T06:04:49.837Z,30.00
2018-09-24T06:07:23.261Z,28.93
2018-09-24T06:09:56.633Z,31.07
2018-09-24T06:12:30.133Z,31.37
2018-09-24T06:15:03.725Z,32.10
2018-09-24T06:17:37.150Z,30.73
2018-09-24T06:20:10.865Z,32.47
2018-09-24T06:22:44.444Z,29.03
2018-09-24T06:25:18.037Z,33.47
2018-09-24T06:27:51.431Z,32.17
2018-09-24T06:30:24.958Z,30.20
2018-09-24T06:32:58.236Z,29.27
2018-09-24T06:35:31.545Z,29.63
2018-09-24T06:38:05.831Z,33.97
2018-09-24T06:40:39.528Z,28.57
2018-09-24T06:43:13.138Z,30.47
2018-09-24T06:45:46.642Z,28.43
2018-09-24T06:48:19.930Z,28.83
2018-09-24T06:50:53.378Z,29.17
2018-09-24T06:53:26.957Z,28.33
2018-09-24T06:56:01.095Z,26.40
2018-09-24T06:58:34.394Z,28.97
2018-09-24T07:01:07.878Z,26.30
2018-09-24T07:03:41.256Z,26.93
2018-09-24T07:06:14.759Z,26.50
2018-09-24T07:08:48.150Z,27.20
2018-09-24T07:11:21.644Z,26.97
2018-09-24T07:13:55.158Z,22.97
2018-09-24T07:16:28.411Z,25.57
2018-09-24T07:19:01.819Z,24.87
2018-09-24T07:21:35.535Z,26.97
2018-09-24T07:24:08.996Z,22.97
2018-09-24T07:26:42.335Z,23.43
2018-09-24T07:29:15.729Z,22.70
2018-09-24T07:31:49.100Z,23.43
2018-09-24T07:34:22.425Z,22.30
2018-09-24T07:36:56.157Z,22.50
2018-09-24T07:39:29.507Z,22.37
2018-09-24T07:42:03.057Z,22.03
2018-09-24T07:44:36.504Z,21.33
2018-09-24T07:47:09.908Z,19.20
2018-09-24T07:49:43.363Z,18.37
2018-09-24T07:52:16.801Z,16.47
2018-09-24T07:54:50.358Z,17.87
2018-09-24T07:57:23.784Z,18.93
2018-09-24T07:59:57.143Z,18.00
2018-09-24T08:02:30.566Z,20.50
2018-09-24T08:05:03.975Z,15.63
2018-09-24T08:07:37.378Z,15.63
2018-09-24T08:10:12.099Z,17.33
2018-09-24T08:12:45.459Z,18.57
2018-09-24T08:15:19.231Z,18.40
2018-09-24T08:17:52.815Z,15.90
2018-09-24T08:20:27.412Z,17.33
2018-09-24T08:23:00.762Z,15.43
2018-09-24T08:25:34.257Z,16.03
2018-09-24T08:28:07.539Z,16.57
2018-09-24T08:30:41.054Z,15.27
2018-09-24T08:33:14.413Z,15.57
2018-09-24T08:35:47.690Z,16.53
2018-09-24T08:38:21.130Z,14.33
2018-09-24T08:40:54.553Z,15.57
2018-09-24T08:43:27.985Z,17.07
2018-09-24T08:46:01.269Z,15.87
2018-09-24T08:48:34.682Z,13.73
2018-09-24T08:51:08.077Z,15.00
2018-09-24T08:53:41.577Z,13.77
2018-09-24T08:56:14.863Z,14.67
2018-09-24T08:58:48.464Z,13.97
2018-09-24T09:01:22.000Z,15.40
2018-09-24T09:03:55.583Z,15.10
2018-09-24T09:06:29.242Z,16.10
2018-09-24T09:09:02.807Z,14.87
2018-09-24T09:11:36.333Z,14.43
2018-09-24T09:14:09.937Z,15.53
2018-09-24T09:16:43.279Z,14.00
2018-09-24T09:19:16.734Z,13.77
2018-09-24T09:21:50.125Z,14.27
2018-09-24T09:24:24.420Z,12.83
2018-09-24T09:26:57.843Z,12.10
2018-09-24T09:29:31.434Z,11.60
2018-09-24T09:32:04.755Z,12.97
2018-09-24T09:34:38.456Z,13.03
2018-09-24T09:37:11.853Z,13.10
2018-09-24T09:39:45.299Z,13.50
2018-09-24T09:42:18.702Z,9.00
2018-09-24T09:44:52.091Z,10.30
2018-09-24T09:47:25.588Z,10.93
2018-09-24T09:49:59.692Z,10.43
2018-09-24T09:52:32.945Z,11.87
2018-09-24T09:55:07.739Z,12.00
2018-09-24T09:57:41.108Z,14.83
2018-09-24T10:00:14.541Z,12.63
2018-09-24T10:02:48.080Z,12.40
2018-09-24T10:05:21.433Z,16.07
2018-09-24T10:07:54.975Z,11.10
2018-09-24T10:10:28.441Z,10.23
2018-09-24T10:13:01.967Z,10.57
2018-09-24T10:15:36.266Z,9.83
2018-09-24T10:18:10.010Z,15.23
2018-09-24T10:20:43.373Z,11.70
2018-09-24T10:23:16.980Z,10.33
2018-09-24T10:25:50.378Z,10.83
2018-09-24T10:28:24.731Z,10.63
2018-09-24T10:31:00.820Z,14.73
2018-09-24T10:33:34.254Z,10.33
2018-09-24T10:36:08.341Z,11.50
2018-09-24T10:38:42.769Z,11.83
2018-09-24T10:41:16.203Z,11.00
2018-09-24T10:43:49.578Z,10.07
2018-09-24T10:46:23.107Z,10.30
2018-09-24T10:48:57.242Z,9.37
2018-09-24T10:51:30.479Z,9.90
2018-09-24T10:54:03.867Z,11.57
2018-09-24T10:56:37.387Z,9.67
2018-09-24T10:59:10.929Z,11.40
2018-09-24T11:01:44.378Z,10.47
2018-09-24T11:04:20.674Z,9.83
2018-09-24T11:06:53.991Z,9.87
2018-09-24T11:09:27.443Z,8.87
2018-09-24T11:12:01.213Z,5.00
2018-09-24T11:14:34.650Z,7.73
2018-09-24T11:17:08.644Z,7.70
2018-09-24T11:19:45.668Z,4.10
2018-09-24T11:22:19.944Z,6.60
2018-09-24T11:24:54.599Z,4.90
2018-09-24T11:27:28.077Z,4.37
2018-09-24T11:30:03.259Z,7.10
2018-09-24T11:32:36.691Z,7.70
2018-09-24T11:35:10.394Z,4.83
2018-09-24T11:37:43.835Z,10.83
2018-09-24T11:40:17.293Z,10.40
2018-09-24T11:42:51.301Z,6.30
2018-09-24T11:45:24.735Z,6.57
2018-09-24T11:47:58.572Z,14.73
2018-09-24T11:50:31.819Z,11.33
2018-09-24T11:53:05.560Z,22.67
2018-09-24T11:55:39.124Z,20.80
2018-09-24T11:58:12.662Z,17.30
2018-09-24T12:00:46.287Z,17.97
2018-09-24T12:03:19.924Z,93.80
2018-09-24T12:05:53.563Z,38.80
2018-09-24T12:08:27.932Z,45.00
2018-09-24T12:11:01.234Z,37.50
2018-09-24T12:13:34.683Z,30.60
2018-09-24T12:16:08.055Z,33.90
2018-09-24T12:18:41.689Z,36.20
2018-09-24T12:21:15.223Z,28.07
2018-09-24T12:23:48.869Z,23.07
2018-09-24T12:26:22.201Z,19.13
2018-09-24T12:28:55.675Z,34.17
2018-09-24T12:31:28.958Z,26.63
2018-09-24T12:34:02.438Z,25.77
2018-09-24T12:36:36.012Z,25.83
2018-09-24T12:39:11.281Z,25.03
2018-09-24T12:41:44.611Z,31.03
2018-09-24T12:44:18.019Z,24.67
2018-09-24T12:46:51.480Z,38.77
2018-09-24T12:49:24.671Z,23.97
2018-09-24T12:51:58.095Z,32.57
2018-09-24T12:54:31.419Z,53.93
2018-09-24T12:57:05.120Z,11.10
2018-09-24T12:59:38.543Z,31.40
2018-09-24T13:02:11.972Z,21.50
2018-09-24T13:04:45.273Z,33.73
2018-09-24T13:07:18.598Z,23.87
2018-09-24T13:09:52.010Z,15.20
2018-09-24T13:12:25.512Z,33.17
2018-09-24T13:14:59.888Z,31.37
2018-09-24T13:17:33.453Z,14.97
2018-09-24T13:20:07.089Z,11.97
2018-09-24T13:22:40.414Z,13.60
2018-09-24T13:25:13.822Z,7.73
2018-09-24T13:27:47.112Z,17.47
2018-09-24T13:30:20.739Z,9.40
2018-09-24T13:32:57.788Z,8.27
2018-09-24T13:35:35.403Z,16.73
2018-09-24T13:38:14.589Z,10.77
2018-09-24T13:40:57.779Z,10.43
2018-09-24T13:43:35.711Z,5.27
2018-09-24T13:46:28.862Z,11.60
2018-09-24T13:49:03.188Z,12.00
2018-09-24T13:51:49.902Z,7.07
2018-09-24T13:57:05.559Z,8.00
2018-09-24T13:59:44.651Z,7.37
2018-09-24T14:02:28.897Z,6.00
2018-09-24T14:05:02.122Z,5.43
2018-09-24T14:07:35.554Z,15.30
2018-09-24T14:10:09.248Z,9.87
2018-09-24T14:12:42.458Z,4.83
2018-09-24T14:15:15.839Z,8.80
2018-09-24T14:17:49.114Z,3.40
2018-09-24T14:20:22.506Z,8.43
2018-09-24T14:22:55.972Z,4.37
2018-09-24T14:25:29.965Z,7.10
2018-09-24T14:28:04.976Z,7.90
2018-09-24T14:30:38.595Z,8.97
2018-09-24T14:33:12.019Z,7.70
2018-09-24T14:35:46.575Z,6.00
2018-09-24T14:38:19.809Z,3.90
2018-09-24T14:40:59.968Z,3.33
2018-09-24T14:43:37.401Z,0.97
2018-09-24T14:46:12.005Z,1.73
2018-09-24T14:48:46.258Z,2.20
2018-09-24T14:51:19.623Z,1.57
2018-09-24T14:53:53.326Z,1.67
2018-09-24T14:56:26.792Z,4.67
2018-09-24T14:59:00.266Z,4.07
2018-09-24T15:01:34.251Z,4.80
2018-09-24T15:04:07.622Z,4.20
2018-09-24T15:06:40.989Z,2.33
2018-09-24T15:09:14.293Z,1.53
2018-09-24T15:11:47.691Z,3.50
2018-09-24T15:14:21.046Z,3.03
2018-09-24T15:16:54.687Z,2.87
2018-09-24T15:19:28.849Z,2.83
2018-09-24T15:22:02.633Z,4.23
2018-09-24T15:24:36.326Z,6.23
2018-09-24T15:27:10.003Z,2.10
2018-09-24T15:29:43.537Z,1.93
2018-09-24T15:32:23.823Z,8.47
2018-09-24T15:34:57.133Z,4.47
2018-09-24T15:37:30.975Z,7.23
2018-09-24T15:40:05.940Z,1.53
2018-09-24T15:42:39.592Z,1.67
2018-09-24T15:45:13.234Z,4.60
2018-09-24T15:47:46.747Z,4.43
2018-09-24T15:50:20.581Z,2.27
2018-09-24T15:52:54.162Z,1.57
2018-09-24T15:55:27.595Z,2.00
2018-09-24T15:58:01.185Z,2.60
2018-09-24T16:00:34.693Z,2.33
2018-09-24T16:03:07.943Z,4.80
2018-09-24T16:05:41.709Z,7.70
2018-09-24T16:08:15.417Z,1.80
2018-09-24T16:10:48.737Z,1.77
2018-09-24T16:13:22.091Z,2.50
2018-09-24T16:15:55.667Z,2.00
2018-09-24T16:18:29.069Z,2.80
2018-09-24T16:21:03.682Z,3.23
2018-09-24T16:23:37.717Z,5.00
2018-09-24T16:26:11.494Z,9.33
2018-09-24T16:28:45.152Z,4.63
2018-09-24T16:31:18.527Z,4.00
2018-09-24T16:33:52.072Z,3.33
2018-09-24T16:36:25.565Z,2.83
2018-09-24T16:38:59.200Z,2.00
2018-09-24T16:41:32.866Z,2.93
2018-09-24T16:44:06.539Z,1.93
2018-09-24T16:46:39.999Z,1.67
2018-09-24T16:49:13.518Z,2.60
2018-09-24T16:51:47.883Z,4.07
2018-09-24T16:54:21.185Z,4.03
2018-09-24T16:56:54.708Z,3.70
2018-09-24T16:59:28.349Z,4.47
2018-09-24T17:04:41.333Z,2.40
2018-09-24T17:07:18.166Z,4.43
2018-09-24T17:09:53.278Z,1.83
2018-09-24T17:12:26.999Z,2.93
2018-09-24T17:15:01.102Z,2.67
2018-09-24T17:17:34.696Z,2.50
2018-09-24T17:20:11.565Z,3.67
2018-09-24T17:22:44.975Z,8.73
2018-09-24T17:25:18.360Z,4.30
2018-09-24T17:27:54.026Z,2.03
2018-09-24T17:30:27.514Z,2.40
2018-09-24T17:33:00.887Z,2.80
2018-09-24T17:35:34.214Z,2.47
2018-09-24T17:38:07.681Z,2.30
2018-09-24T17:40:40.996Z,2.50
2018-09-24T17:43:14.389Z,2.20
2018-09-24T17:45:47.904Z,5.17
2018-09-24T17:48:21.142Z,2.10
2018-09-24T17:50:54.541Z,2.13
2018-09-24T17:53:27.916Z,3.57
2018-09-24T17:56:03.039Z,2.97
2018-09-24T17:58:36.693Z,3.20
2018-09-24T18:01:10.035Z,2.80
2018-09-24T18:03:43.411Z,6.70
2018-09-24T18:06:16.845Z,3.10
2018-09-24T18:08:50.303Z,5.33
2018-09-24T18:11:23.618Z,4.17
2018-09-24T18:13:57.828Z,4.30
2018-09-24T18:16:31.302Z,5.27
2018-09-24T18:19:04.731Z,5.00
2018-09-24T18:21:38.151Z,5.30
2018-09-24T18:24:11.571Z,7.00
2018-09-24T18:26:44.936Z,6.03
2018-09-24T18:29:19.617Z,5.97
2018-09-24T18:31:58.061Z,6.17
2018-09-24T18:34:35.294Z,5.83
2018-09-24T18:37:09.287Z,5.27
2018-09-24T18:39:46.034Z,6.13
2018-09-24T18:42:19.524Z,4.90
2018-09-24T18:44:53.019Z,6.90
2018-09-24T18:47:26.361Z,5.37
2018-09-24T18:49:59.893Z,4.70
2018-09-24T18:52:33.243Z,4.50
2018-09-24T18:55:07.583Z,6.97
2018-09-24T18:57:41.051Z,5.00
2018-09-24T19:00:14.602Z,4.80
2018-09-24T19:02:47.855Z,5.23
2018-09-24T19:05:21.204Z,5.43
2018-09-24T19:07:54.654Z,5.70
2018-09-24T19:10:28.394Z,4.57
2018-09-24T19:13:01.742Z,5.27
2018-09-24T19:15:35.314Z,5.30
2018-09-24T19:18:08.951Z,5.33
2018-09-24T19:20:42.410Z,5.83
2018-09-24T19:23:15.766Z,5.37
2018-09-24T19:25:49.192Z,6.13
2018-09-24T19:28:23.027Z,4.97
2018-09-24T19:30:57.940Z,6.20
2018-09-24T19:33:31.451Z,6.23
2018-09-24T19:36:04.893Z,5.83
2018-09-24T19:38:38.370Z,6.00
2018-09-24T19:41:11.852Z,6.37
2018-09-24T19:43:45.160Z,6.10
2018-09-24T19:46:18.600Z,6.27
2018-09-24T19:48:51.973Z,5.60
2018-09-24T19:51:25.285Z,10.00
2018-09-24T19:53:58.665Z,4.87
2018-09-24T19:56:31.969Z,4.80
2018-09-24T19:59:05.901Z,5.30
2018-09-24T20:01:40.301Z,5.33
2018-09-24T20:04:13.970Z,4.93
2018-09-24T20:06:47.218Z,4.47
2018-09-24T20:09:20.670Z,5.30
2018-09-24T20:11:54.108Z,8.03
2018-09-24T20:14:27.536Z,10.10
2018-09-24T20:17:04.521Z,4.20
2018-09-24T20:19:37.893Z,3.87
2018-09-24T20:22:13.129Z,3.53
2018-09-24T20:24:47.140Z,4.63
2018-09-24T20:27:20.523Z,4.03
2018-09-24T20:29:54.248Z,3.63
2018-09-24T20:32:27.588Z,3.83
2018-09-24T20:35:00.855Z,3.30
2018-09-24T20:37:34.603Z,4.67
2018-09-24T20:40:08.316Z,3.23
2018-09-24T20:42:41.808Z,2.70
2018-09-24T20:45:15.563Z,2.53
2018-09-24T20:47:48.926Z,2.97
2018-09-24T20:50:22.404Z,2.60
2018-09-24T20:52:55.709Z,2.07
2018-09-24T20:55:29.004Z,1.93
2018-09-24T20:58:02.526Z,2.00
2018-09-24T21:00:37.265Z,1.83
2018-09-24T21:03:11.329Z,2.70
2018-09-24T21:05:44.673Z,2.20
2018-09-24T21:08:18.531Z,2.30
2018-09-24T21:10:51.863Z,1.80
2018-09-24T21:13:26.104Z,1.93
2018-09-24T21:15:59.840Z,1.07
2018-09-24T21:18:33.200Z,1.30
2018-09-24T21:21:06.603Z,1.03
2018-09-24T21:23:39.879Z,1.00
2018-09-24T21:26:13.364Z,1.17
2018-09-24T21:28:46.844Z,1.20
2018-09-24T21:31:20.180Z,1.40
2018-09-24T21:33:53.546Z,1.20
2018-09-24T21:36:26.952Z,1.13
2018-09-24T21:39:02.589Z,1.10
2018-09-24T21:41:36.030Z,1.30
2018-09-24T21:44:09.482Z,1.10
2018-09-24T21:46:43.891Z,1.40
2018-09-24T21:49:19.216Z,2.47
2018-09-24T21:54:32.703Z,1.40
2018-09-24T21:57:06.298Z,1.17
2018-09-24T21:59:40.052Z,1.70
2018-09-24T22:02:13.756Z,1.43
2018-09-24T22:04:47.105Z,1.33
2018-09-24T22:07:20.302Z,1.47
2018-09-24T22:09:53.677Z,1.80
2018-09-24T22:12:27.180Z,1.73
2018-09-24T22:15:00.592Z,1.33
2018-09-24T22:17:34.054Z,1.93
2018-09-24T22:20:08.600Z,1.63
2018-09-24T22:22:42.308Z,1.67
2018-09-24T22:25:15.970Z,1.80
2018-09-24T22:27:49.577Z,1.77
2018-09-24T22:30:23.035Z,1.60
2018-09-24T22:32:56.400Z,1.73
2018-09-24T22:35:30.041Z,1.70
2018-09-24T22:38:03.359Z,2.17
2018-09-24T22:40:38.270Z,2.07
2018-09-24T22:43:11.764Z,2.70
2018-09-24T22:45:45.180Z,2.00
2018-09-24T22:48:18.386Z,2.57
2018-09-24T22:50:51.648Z,2.17
2018-09-24T22:53:25.058Z,2.70
2018-09-24T22:55:58.484Z,2.07
2018-09-24T22:58:31.935Z,2.53
2018-09-24T23:01:05.378Z,2.70
2018-09-24T23:03:38.668Z,3.03
2018-09-24T23:06:11.941Z,3.60
2018-09-24T23:08:45.410Z,2.83
2018-09-24T23:11:18.745Z,2.73
2018-09-24T23:13:52.197Z,3.27
2018-09-24T23:16:25.763Z,2.93
2018-09-24T23:18:59.107Z,4.13
2018-09-24T23:21:32.930Z,4.70
2018-09-24T23:24:06.439Z,3.40
2018-09-24T23:26:39.779Z,3.20
2018-09-24T23:29:13.335Z,4.53
2018-09-24T23:31:46.596Z,4.07
2018-09-24T23:34:19.973Z,4.25
2018-09-24T23:36:53.523Z,3.13
2018-09-24T23:39:26.991Z,3.37
2018-09-24T23:42:01.981Z,2.90
2018-09-24T23:44:35.480Z,3.43
2018-09-24T23:47:09.082Z,3.67
2018-09-24T23:49:42.363Z,3.53
2018-09-24T23:52:15.795Z,3.17
2018-09-24T23:54:49.037Z,3.23
2018-09-24T23:57:22.235Z,3.40
2018-09-24T23:59:55.707Z,5.43
